Time;durP1;ratioP1;P1;durP2;ratioP2;P2;SDS_P1;SDS_P2;PMS_P1;PMS_P2;Temp;Humidity;BMP_temperature;BMP_pressure;BME280_temperature;BME280_humidity;BME280_pressure;Samples;Min_cycle;Max_cycle;Signal;HPM_P1;HPM_P2
2024/01/18 00:01:39;;;;;;;6.00;1.80;;;;;;;;;;5017743;28;20060;-29
2024/01/18 00:04:05;;;;;;;2.88;1.63;;;;;;;;;;5017388;28;20053;-31
2024/01/18 00:06:34;;;;;;;4.45;2.22;;;;;;;;;;5017638;28;20026;-30
2024/01/18 00:09:01;;;;;;;17.10;1.83;;;;;;;;;;5017739;28;20469;-30
2024/01/18 00:11:27;;;;;;;2.78;1.08;;;;;;;;;;5017538;28;20095;-30
2024/01/18 00:13:54;;;;;;;6.03;1.33;;;;;;;;;;5017339;28;20032;-30
2024/01/18 00:16:20;;;;;;;5.25;1.42;;;;;;;;;;5017418;28;20071;-32
2024/01/18 00:18:46;;;;;;;8.10;1.98;;;;;;;;;;5017633;28;20030;-31
2024/01/18 00:21:12;;;;;;;2.20;1.27;;;;;;;;;;5000078;28;20463;-30
2024/01/18 00:23:38;;;;;;;2.38;1.13;;;;;;;;;;5017241;28;20120;-31
2024/01/18 00:26:05;;;;;;;5.00;1.60;;;;;;;;;;5017542;28;20103;-30
2024/01/18 00:28:31;;;;;;;2.63;1.23;;;;;;;;;;5017152;28;20022;-30
2024/01/18 00:30:57;;;;;;;3.95;1.58;;;;;;;;;;5017675;28;20445;-30
2024/01/18 00:33:23;;;;;;;4.60;1.65;;;;;;;;;;5017105;28;20026;-28
2024/01/18 00:35:49;;;;;;;1.63;1.30;;;;;;;;;;5017283;28;20100;-30
2024/01/18 00:38:16;;;;;;;2.92;1.10;;;;;;;;;;4999747;28;20030;-31
2024/01/18 00:40:42;;;;;;;2.40;1.13;;;;;;;;;;5017252;28;20076;-30
2024/01/18 00:43:08;;;;;;;2.80;1.50;;;;;;;;;;5017111;28;20061;-32
2024/01/18 00:45:34;;;;;;;2.30;1.20;;;;;;;;;;5016889;28;20029;-30
2024/01/18 00:48:00;;;;;;;3.05;1.20;;;;;;;;;;5016962;28;20030;-30
2024/01/18 00:50:26;;;;;;;4.30;1.15;;;;;;;;;;5016783;28;20096;-30
2024/01/18 00:52:53;;;;;;;2.28;1.48;;;;;;;;;;5016671;28;20037;-30
2024/01/18 00:55:19;;;;;;;2.78;1.20;;;;;;;;;;5016721;28;20022;-30
2024/01/18 00:57:45;;;;;;;5.10;1.48;;;;;;;;;;5016661;28;20037;-29
2024/01/18 01:00:13;;;;;;;2.83;1.13;;;;;;;;;;5016849;28;20029;-30
2024/01/18 01:02:39;;;;;;;4.65;1.30;;;;;;;;;;5016319;28;20018;-31
2024/01/18 01:05:05;;;;;;;1.48;1.00;;;;;;;;;;5016492;28;20041;-30
2024/01/18 01:07:31;;;;;;;2.78;1.45;;;;;;;;;;4999117;28;20120;-30
2024/01/18 01:09:58;;;;;;;5.25;1.27;;;;;;;;;;5016698;28;20031;-29
2024/01/18 01:12:24;;;;;;;4.13;1.55;;;;;;;;;;5016839;28;20505;-33
2024/01/18 01:14:50;;;;;;;2.40;1.33;;;;;;;;;;5016335;28;20034;-28
2024/01/18 01:17:16;;;;;;;1.73;1.15;;;;;;;;;;5016567;28;20026;-30
2024/01/18 01:19:42;;;;;;;2.97;1.23;;;;;;;;;;5016529;28;20036;-30
2024/01/18 01:22:08;;;;;;;5.00;1.50;;;;;;;;;;5016655;28;20064;-31
2024/01/18 01:24:38;;;;;;;2.22;1.30;;;;;;;;;;5016119;28;20108;-30
2024/01/18 01:27:05;;;;;;;2.45;1.45;;;;;;;;;;4998197;28;20527;-31
2024/01/18 01:29:31;;;;;;;4.55;2.08;;;;;;;;;;4998778;28;20536;-30
2024/01/18 01:31:57;;;;;;;2.17;1.30;;;;;;;;;;5015943;28;20453;-30
2024/01/18 01:34:23;;;;;;;2.45;1.17;;;;;;;;;;5016024;28;20024;-31
2024/01/18 01:36:50;;;;;;;6.03;2.47;;;;;;;;;;5016183;28;20028;-30
2024/01/18 01:39:16;;;;;;;2.15;1.30;;;;;;;;;;5016151;28;20066;-32
2024/01/18 01:41:43;;;;;;;3.00;1.35;;;;;;;;;;5015882;28;20034;-31
2024/01/18 01:44:09;;;;;;;5.55;1.40;;;;;;;;;;4998380;28;20461;-30
2024/01/18 01:46:35;;;;;;;1.52;1.13;;;;;;;;;;5016048;28;20034;-31
2024/01/18 01:49:02;;;;;;;6.47;1.67;;;;;;;;;;5015674;28;20029;-29
2024/01/18 01:51:30;;;;;;;6.40;1.50;;;;;;;;;;5015947;28;20026;-30
2024/01/18 01:53:57;;;;;;;6.45;1.35;;;;;;;;;;4998493;28;20349;-31
2024/01/18 01:56:23;;;;;;;2.25;1.10;;;;;;;;;;5015845;28;20022;-29
2024/01/18 01:58:50;;;;;;;3.58;2.10;;;;;;;;;;5015597;28;20033;-30
2024/01/18 02:01:16;;;;;;;4.35;1.33;;;;;;;;;;5015530;28;20036;-30
2024/01/18 02:03:42;;;;;;;2.78;1.13;;;;;;;;;;4997905;28;20428;-28
2024/01/18 02:06:09;;;;;;;1.95;1.00;;;;;;;;;;5015940;28;20021;-30
2024/01/18 02:08:35;;;;;;;3.00;1.20;;;;;;;;;;5015336;28;20026;-31
2024/01/18 02:11:03;;;;;;;1.00;0.90;;;;;;;;;;5015583;28;20025;-30
2024/01/18 02:13:30;;;;;;;2.70;1.25;;;;;;;;;;5015369;28;20029;-32
2024/01/18 02:15:56;;;;;;;1.85;1.27;;;;;;;;;;5015516;28;20115;-30
2024/01/18 02:18:22;;;;;;;3.60;1.27;;;;;;;;;;5015280;28;20037;-31
2024/01/18 02:20:49;;;;;;;2.33;1.15;;;;;;;;;;5015136;28;20078;-29
2024/01/18 02:23:16;;;;;;;4.72;1.33;;;;;;;;;;5015300;28;20029;-31
2024/01/18 02:25:42;;;;;;;3.30;1.30;;;;;;;;;;4997801;28;20026;-38
2024/01/18 02:28:08;;;;;;;1.63;1.08;;;;;;;;;;5015275;28;20054;-31
2024/01/18 02:30:34;;;;;;;2.72;1.20;;;;;;;;;;4997761;28;20032;-31
2024/01/18 02:33:01;;;;;;;1.70;1.10;;;;;;;;;;5015207;28;20028;-30
2024/01/18 02:35:27;;;;;;;5.00;1.80;;;;;;;;;;5014966;28;20021;-29
2024/01/18 02:37:53;;;;;;;2.55;1.35;;;;;;;;;;5014321;28;20030;-29
2024/01/18 02:40:19;;;;;;;1.63;1.10;;;;;;;;;;5014946;28;20457;-30
2024/01/18 02:42:45;;;;;;;4.35;1.13;;;;;;;;;;5014820;28;20451;-32
2024/01/18 02:45:12;;;;;;;1.63;1.23;;;;;;;;;;5015165;28;20327;-32
2024/01/18 02:47:38;;;;;;;2.75;1.30;;;;;;;;;;5014762;28;20021;-30
2024/01/18 02:50:04;;;;;;;2.40;1.27;;;;;;;;;;5015138;28;20034;-29
2024/01/18 02:52:32;;;;;;;3.88;1.10;;;;;;;;;;4997449;28;20434;-30
2024/01/18 02:54:59;;;;;;;1.73;1.17;;;;;;;;;;5014735;28;20139;-33
2024/01/18 02:57:25;;;;;;;3.58;1.27;;;;;;;;;;5015328;28;20066;-31
2024/01/18 02:59:51;;;;;;;1.70;1.10;;;;;;;;;;5014775;28;20031;-31
2024/01/18 03:02:17;;;;;;;2.58;1.30;;;;;;;;;;5014678;28;20025;-31
2024/01/18 03:04:44;;;;;;;1.85;1.20;;;;;;;;;;4997529;28;20050;-30
2024/01/18 03:07:10;;;;;;;1.90;1.05;;;;;;;;;;5014674;28;20104;-31
2024/01/18 03:09:37;;;;;;;3.55;1.52;;;;;;;;;;5014952;28;20353;-30
2024/01/18 03:12:03;;;;;;;3.25;1.40;;;;;;;;;;5014512;28;20030;-30
2024/01/18 03:14:29;;;;;;;1.38;0.80;;;;;;;;;;5014899;28;20080;-30
2024/01/18 03:16:56;;;;;;;3.13;1.10;;;;;;;;;;5014578;28;20026;-31
2024/01/18 03:19:22;;;;;;;1.08;0.95;;;;;;;;;;5014521;28;20054;-29
2024/01/18 03:21:48;;;;;;;2.22;0.93;;;;;;;;;;5014774;28;20037;-29
2024/01/18 03:24:14;;;;;;;3.05;1.48;;;;;;;;;;5014553;28;20038;-30
2024/01/18 03:26:40;;;;;;;2.00;1.00;;;;;;;;;;5014775;28;20057;-31
2024/01/18 03:29:09;;;;;;;1.70;1.05;;;;;;;;;;5014363;28;20030;-31
2024/01/18 03:31:35;;;;;;;1.30;0.80;;;;;;;;;;5014719;28;20076;-30
2024/01/18 03:34:01;;;;;;;1.33;1.17;;;;;;;;;;5014393;28;20097;-31
2024/01/18 03:36:27;;;;;;;1.33;1.00;;;;;;;;;;5014705;28;20041;-32
2024/01/18 03:38:53;;;;;;;1.60;1.15;;;;;;;;;;5014957;28;20058;-32
2024/01/18 03:41:20;;;;;;;1.80;1.42;;;;;;;;;;5014368;28;20041;-30
2024/01/18 03:43:46;;;;;;;1.95;1.20;;;;;;;;;;5014561;28;20030;-30
2024/01/18 03:46:16;;;;;;;1.55;1.20;;;;;;;;;;5014323;28;20045;-31
2024/01/18 03:48:42;;;;;;;2.05;1.08;;;;;;;;;;4996940;28;20476;-30
2024/01/18 03:51:08;;;;;;;2.05;0.90;;;;;;;;;;5017866;28;20034;-29
2024/01/18 03:53:36;;;;;;;2.47;1.00;;;;;;;;;;5017862;28;20331;-28
2024/01/18 03:56:02;;;;;;;1.70;1.02;;;;;;;;;;5018056;28;20057;-29
2024/01/18 03:58:28;;;;;;;2.10;1.10;;;;;;;;;;5017795;28;20141;-33
2024/01/18 04:00:55;;;;;;;1.50;1.33;;;;;;;;;;5018049;28;20022;-29
2024/01/18 04:03:21;;;;;;;1.90;1.20;;;;;;;;;;4996952;28;20065;-30
2024/01/18 04:05:47;;;;;;;2.15;1.65;;;;;;;;;;4998094;28;20121;-30
2024/01/18 04:08:13;;;;;;;3.55;1.23;;;;;;;;;;4998164;28;20034;-30
2024/01/18 04:10:39;;;;;;;1.90;1.10;;;;;;;;;;4998518;28;20026;-31
2024/01/18 04:13:05;;;;;;;1.63;1.00;;;;;;;;;;4997839;28;20435;-31
2024/01/18 04:15:32;;;;;;;3.72;1.10;;;;;;;;;;4998146;28;20049;-30
2024/01/18 04:17:58;;;;;;;2.58;1.42;;;;;;;;;;4996869;28;20373;-29
2024/01/18 04:20:27;;;;;;;2.80;1.17;;;;;;;;;;4998037;28;20026;-32
2024/01/18 04:22:54;;;;;;;1.42;1.17;;;;;;;;;;4997620;28;20034;-31
2024/01/18 04:25:20;;;;;;;1.30;1.10;;;;;;;;;;4997936;28;20351;-31
2024/01/18 04:27:46;;;;;;;1.92;1.60;;;;;;;;;;4997858;28;20049;-32
2024/01/18 04:30:13;;;;;;;2.42;1.38;;;;;;;;;;4997585;28;20089;-29
2024/01/18 04:32:40;;;;;;;1.77;1.10;;;;;;;;;;4997433;28;20026;-30
2024/01/18 04:35:06;;;;;;;4.85;1.30;;;;;;;;;;4998047;28;20046;-30
2024/01/18 04:37:32;;;;;;;1.55;1.38;;;;;;;;;;4996450;28;20026;-33
2024/01/18 04:39:58;;;;;;;1.75;1.10;;;;;;;;;;4997423;28;20030;-30
2024/01/18 04:42:25;;;;;;;2.65;1.17;;;;;;;;;;4997538;28;20381;-30
2024/01/18 04:44:51;;;;;;;1.42;1.33;;;;;;;;;;4997565;28;20034;-33
2024/01/18 04:47:17;;;;;;;2.17;1.20;;;;;;;;;;4997229;28;20030;-32
2024/01/18 04:49:43;;;;;;;2.17;0.98;;;;;;;;;;4997275;28;20457;-31
2024/01/18 04:52:10;;;;;;;2.55;1.10;;;;;;;;;;4997104;28;20022;-31
2024/01/18 04:54:36;;;;;;;1.92;1.48;;;;;;;;;;4996213;28;20023;-30
2024/01/18 04:57:03;;;;;;;1.77;0.98;;;;;;;;;;4997328;28;20022;-29
2024/01/18 04:59:29;;;;;;;1.77;1.30;;;;;;;;;;4996971;28;20168;-30
2024/01/18 05:01:56;;;;;;;2.38;1.30;;;;;;;;;;4996178;28;20037;-30
2024/01/18 05:04:22;;;;;;;1.60;1.10;;;;;;;;;;5010717;28;20061;-30
2024/01/18 05:06:48;;;;;;;1.58;1.15;;;;;;;;;;5016595;28;20029;-33
2024/01/18 05:09:16;;;;;;;1.65;1.00;;;;;;;;;;5016469;28;20172;-40
2024/01/18 05:11:43;;;;;;;0.98;0.75;;;;;;;;;;5016274;28;20028;-34
2024/01/18 05:14:09;;;;;;;1.73;1.10;;;;;;;;;;5016389;28;20029;-30
2024/01/18 05:16:39;;;;;;;1.45;1.00;;;;;;;;;;5016455;28;20354;-29
2024/01/18 05:19:08;;;;;;;2.03;0.98;;;;;;;;;;5016134;28;20084;-32
2024/01/18 05:21:34;;;;;;;1.42;0.95;;;;;;;;;;5016396;28;20034;-31
2024/01/18 05:24:00;;;;;;;1.30;1.20;;;;;;;;;;4998711;28;20104;-30
2024/01/18 05:26:26;;;;;;;1.98;1.17;;;;;;;;;;5016151;28;20026;-32
2024/01/18 05:28:52;;;;;;;1.83;1.05;;;;;;;;;;4998747;28;20022;-33
2024/01/18 05:31:18;;;;;;;6.43;1.77;;;;;;;;;;4998694;28;20018;-29
2024/01/18 05:33:45;;;;;;;5.55;1.50;;;;;;;;;;5015806;28;20033;-32
2024/01/18 05:36:11;;;;;;;3.70;1.25;;;;;;;;;;5016042;28;20380;-31
2024/01/18 05:38:37;;;;;;;1.40;1.10;;;;;;;;;;5015846;28;20026;-28
2024/01/18 05:41:03;;;;;;;2.65;1.05;;;;;;;;;;5015947;28;20109;-31
2024/01/18 05:43:29;;;;;;;1.33;0.98;;;;;;;;;;5015640;28;20439;-30
2024/01/18 05:45:55;;;;;;;2.05;1.05;;;;;;;;;;4998378;28;20033;-33
2024/01/18 05:48:21;;;;;;;2.72;1.25;;;;;;;;;;5015860;28;20048;-31
2024/01/18 05:50:47;;;;;;;4.15;1.10;;;;;;;;;;5015637;28;20157;-34
2024/01/18 05:53:14;;;;;;;1.30;1.00;;;;;;;;;;5015974;28;20022;-32
2024/01/18 05:55:40;;;;;;;3.78;1.17;;;;;;;;;;5015957;28;20029;-30
2024/01/18 05:58:07;;;;;;;2.58;1.08;;;;;;;;;;4998294;28;20088;-31
2024/01/18 06:03:18;;;;;;;6.63;1.35;;;;;;;;;;5353925;22;20060;-24
2024/01/18 06:05:45;;;;;;;4.07;0.80;;;;;;;;;;5015332;28;20026;-24
2024/01/18 06:08:11;;;;;;;6.70;1.30;;;;;;;;;;5015457;28;20152;-24
2024/01/18 06:10:37;;;;;;;2.90;1.65;;;;;;;;;;5015682;28;20451;-24
2024/01/18 06:13:03;;;;;;;1.65;1.30;;;;;;;;;;5014852;28;20040;-25
2024/01/18 06:15:30;;;;;;;2.75;1.13;;;;;;;;;;5015132;28;20033;-24
2024/01/18 06:18:03;;;;;;;1.73;1.00;;;;;;;;;;5015009;28;20026;-23
2024/01/18 06:20:29;;;;;;;3.40;1.30;;;;;;;;;;5015373;28;20075;-23
2024/01/18 06:22:57;;;;;;;2.90;1.52;;;;;;;;;;5014866;28;20041;-23
2024/01/18 06:25:24;;;;;;;1.92;1.65;;;;;;;;;;5014905;28;20494;-25
2024/01/18 06:27:50;;;;;;;2.13;1.73;;;;;;;;;;5015051;28;20510;-24
2024/01/18 06:30:18;;;;;;;2.13;1.10;;;;;;;;;;5014846;28;20022;-23
2024/01/18 06:32:44;;;;;;;1.75;1.02;;;;;;;;;;5015039;28;20080;-24
2024/01/18 06:35:11;;;;;;;2.88;1.30;;;;;;;;;;5014813;28;20516;-25
2024/01/18 06:37:38;;;;;;;3.40;1.40;;;;;;;;;;5014770;28;20073;-24
2024/01/18 06:40:04;;;;;;;3.75;1.50;;;;;;;;;;5015031;28;20029;-24
2024/01/18 06:42:31;;;;;;;7.05;1.90;;;;;;;;;;5014931;28;20034;-23
2024/01/18 06:44:57;;;;;;;4.40;1.48;;;;;;;;;;5014969;28;20034;-24
2024/01/18 06:47:25;;;;;;;4.22;1.58;;;;;;;;;;5014815;28;20026;-24
2024/01/18 06:49:51;;;;;;;5.13;1.92;;;;;;;;;;5014589;28;20436;-23
2024/01/18 06:52:17;;;;;;;8.70;1.15;;;;;;;;;;5014501;28;20360;-24
2024/01/18 06:54:44;;;;;;;8.77;1.52;;;;;;;;;;5015109;28;20029;-23
2024/01/18 06:57:10;;;;;;;2.72;1.10;;;;;;;;;;5014479;28;20041;-24
2024/01/18 06:59:37;;;;;;;6.35;1.55;;;;;;;;;;5014502;28;20040;-23
2024/01/18 07:02:03;;;;;;;6.72;1.40;;;;;;;;;;5014229;28;20026;-25
2024/01/18 07:04:29;;;;;;;2.25;1.77;;;;;;;;;;5014777;28;20029;-26
2024/01/18 07:06:55;;;;;;;4.60;1.23;;;;;;;;;;5014464;28;20037;-26
2024/01/18 07:09:21;;;;;;;7.55;1.33;;;;;;;;;;5014714;28;20448;-24
2024/01/18 07:11:47;;;;;;;2.33;1.15;;;;;;;;;;5014613;28;20411;-24
2024/01/18 07:14:13;;;;;;;2.58;1.25;;;;;;;;;;5014673;28;20097;-24
2024/01/18 07:16:40;;;;;;;3.22;2.15;;;;;;;;;;5014507;28;20449;-23
2024/01/18 07:19:06;;;;;;;5.47;1.60;;;;;;;;;;5014469;28;20516;-23
2024/01/18 07:21:32;;;;;;;7.70;1.80;;;;;;;;;;5014301;28;20060;-24
2024/01/18 07:23:58;;;;;;;4.53;1.20;;;;;;;;;;5014606;28;20049;-24
2024/01/18 07:26:24;;;;;;;2.38;1.35;;;;;;;;;;5018519;28;20029;-26
2024/01/18 07:28:50;;;;;;;2.85;1.67;;;;;;;;;;5018140;28;20030;-24
2024/01/18 07:31:16;;;;;;;3.65;2.35;;;;;;;;;;5018094;28;20080;-25
2024/01/18 07:33:43;;;;;;;7.28;1.60;;;;;;;;;;5018025;28;20396;-24
2024/01/18 07:36:09;;;;;;;3.20;1.10;;;;;;;;;;5018042;28;20029;-23
2024/01/18 07:38:35;;;;;;;2.10;1.27;;;;;;;;;;5018251;28;20033;-24
2024/01/18 07:41:02;;;;;;;2.15;1.30;;;;;;;;;;5018424;28;20026;-24
2024/01/18 07:43:28;;;;;;;2.60;1.23;;;;;;;;;;5017944;28;20018;-24
2024/01/18 07:45:54;;;;;;;2.50;1.38;;;;;;;;;;5018121;28;20101;-24
2024/01/18 07:48:20;;;;;;;2.17;1.30;;;;;;;;;;5017716;28;20026;-23
2024/01/18 07:50:46;;;;;;;7.63;2.15;;;;;;;;;;5018002;28;20331;-26
2024/01/18 07:53:13;;;;;;;7.00;1.65;;;;;;;;;;5017599;28;20022;-25
2024/01/18 07:55:39;;;;;;;3.22;1.83;;;;;;;;;;5018083;28;20029;-25
2024/01/18 07:58:06;;;;;;;7.40;1.50;;;;;;;;;;5017728;28;20047;-25
2024/01/18 08:00:32;;;;;;;6.07;1.42;;;;;;;;;;5017941;28;20034;-25
2024/01/18 08:02:59;;;;;;;4.40;1.67;;;;;;;;;;5017508;28;20046;-25
2024/01/18 08:05:27;;;;;;;6.93;1.98;;;;;;;;;;5017826;28;20021;-24
2024/01/18 08:07:53;;;;;;;3.92;1.30;;;;;;;;;;5017713;28;20105;-24
2024/01/18 08:10:19;;;;;;;11.55;1.70;;;;;;;;;;5017547;28;20354;-26
2024/01/18 08:12:47;;;;;;;5.05;1.52;;;;;;;;;;5017606;28;20353;-23
2024/01/18 08:15:13;;;;;;;4.05;1.70;;;;;;;;;;5017390;28;20116;-26
2024/01/18 08:17:39;;;;;;;6.57;1.55;;;;;;;;;;5017425;28;20030;-24
2024/01/18 08:20:12;;;;;;;8.95;1.17;;;;;;;;;;5017501;28;20026;-25
2024/01/18 08:22:39;;;;;;;3.97;1.80;;;;;;;;;;5017128;28;20029;-27
2024/01/18 08:25:06;;;;;;;2.40;1.30;;;;;;;;;;5016990;28;20029;-24
2024/01/18 08:27:32;;;;;;;5.50;1.80;;;;;;;;;;5016888;28;20105;-25
2024/01/18 08:29:59;;;;;;;2.83;1.30;;;;;;;;;;5017237;28;20030;-24
2024/01/18 08:32:31;;;;;;;4.40;1.85;;;;;;;;;;5016845;28;20029;-24
2024/01/18 08:34:58;;;;;;;5.47;1.42;;;;;;;;;;5016894;28;20018;-25
2024/01/18 08:37:24;;;;;;;6.00;1.60;;;;;;;;;;5017191;28;20057;-23
2024/01/18 08:39:50;;;;;;;2.97;1.30;;;;;;;;;;5016832;28;20495;-26
2024/01/18 08:42:17;;;;;;;6.30;1.65;;;;;;;;;;5016930;28;20040;-24
2024/01/18 08:44:45;;;;;;;2.15;1.50;;;;;;;;;;5016759;28;20018;-23
2024/01/18 08:47:12;;;;;;;6.65;1.70;;;;;;;;;;5017445;28;20341;-24
2024/01/18 08:49:38;;;;;;;2.40;1.90;;;;;;;;;;5017123;28;20022;-25
2024/01/18 08:52:04;;;;;;;8.02;2.88;;;;;;;;;;5016699;28;20109;-25
2024/01/18 08:54:31;;;;;;;2.22;1.48;;;;;;;;;;5016582;28;20022;-22
2024/01/18 08:56:58;;;;;;;3.17;1.83;;;;;;;;;;5016829;28;20360;-25
2024/01/18 08:59:24;;;;;;;8.63;1.85;;;;;;;;;;5017062;28;20033;-23
2024/01/18 09:01:50;;;;;;;9.85;1.65;;;;;;;;;;5016396;28;20026;-24
2024/01/18 09:04:16;;;;;;;4.47;1.27;;;;;;;;;;5016197;28;20081;-24
2024/01/18 09:06:45;;;;;;;2.30;1.40;;;;;;;;;;5016662;28;20025;-23
2024/01/18 09:09:13;;;;;;;7.78;2.78;;;;;;;;;;5016518;28;20100;-25
2024/01/18 09:11:39;;;;;;;5.85;1.30;;;;;;;;;;5016279;28;20018;-26
2024/01/18 09:14:06;;;;;;;2.15;1.30;;;;;;;;;;5016444;28;20018;-24
2024/01/18 09:16:32;;;;;;;5.28;1.77;;;;;;;;;;5016184;28;20097;-25
2024/01/18 09:18:59;;;;;;;5.57;1.20;;;;;;;;;;5016937;28;20029;-23
2024/01/18 09:21:25;;;;;;;3.63;1.70;;;;;;;;;;5016373;28;20396;-23
2024/01/18 09:23:51;;;;;;;5.00;1.20;;;;;;;;;;5016590;28;20025;-24
2024/01/18 09:26:17;;;;;;;2.28;1.10;;;;;;;;;;5016026;28;20030;-24
2024/01/18 09:28:44;;;;;;;1.63;1.30;;;;;;;;;;5015920;28;20022;-26
2024/01/18 09:31:10;;;;;;;2.45;1.55;;;;;;;;;;5015822;28;20026;-23
2024/01/18 09:33:37;;;;;;;5.07;1.65;;;;;;;;;;5015751;28;20061;-24
2024/01/18 09:36:04;;;;;;;7.10;2.83;;;;;;;;;;5016591;28;20405;-25
2024/01/18 09:38:30;;;;;;;3.10;1.30;;;;;;;;;;5015697;28;20115;-26
2024/01/18 09:41:01;;;;;;;4.68;2.05;;;;;;;;;;5015772;28;20044;-25
2024/01/18 09:43:27;;;;;;;;;;;;;;;;;;5016248;28;20342;-25
2024/01/18 09:45:56;;;;;;;1.95;1.40;;;;;;;;;;5015509;28;19905;-25
2024/01/18 09:48:25;;;;;;;5.55;1.90;;;;;;;;;;5015384;28;20029;-26
2024/01/18 09:50:51;;;;;;;3.92;2.00;;;;;;;;;;5015357;28;20033;-24
2024/01/18 09:53:18;;;;;;;9.10;1.90;;;;;;;;;;5015315;28;20060;-24
2024/01/18 09:55:44;;;;;;;4.00;1.25;;;;;;;;;;5015372;28;20034;-24
2024/01/18 09:58:12;;;;;;;2.58;1.52;;;;;;;;;;5015326;28;20133;-24
2024/01/18 10:00:41;;;;;;;1.90;1.50;;;;;;;;;;5015228;28;20034;-24
2024/01/18 10:03:07;;;;;;;3.90;1.80;;;;;;;;;;5014960;28;20057;-25
2024/01/18 10:05:34;;;;;;;3.40;1.50;;;;;;;;;;5015603;28;20032;-24
2024/01/18 10:08:00;;;;;;;4.32;1.20;;;;;;;;;;5015325;28;20088;-25
2024/01/18 10:10:28;;;;;;;3.85;1.48;;;;;;;;;;5015042;28;20041;-24
2024/01/18 10:12:54;;;;;;;6.70;1.40;;;;;;;;;;5014945;28;20101;-24
2024/01/18 10:15:33;;;;;;;7.10;1.95;;;;;;;;;;5015048;28;20471;-24
2024/01/18 10:18:02;;;;;;;4.57;1.10;;;;;;;;;;5015246;28;20034;-26
2024/01/18 10:20:29;;;;;;;4.75;1.85;;;;;;;;;;5014906;28;20034;-25
2024/01/18 10:22:55;;;;;;;2.38;1.35;;;;;;;;;;5015075;28;20079;-23
2024/01/18 10:25:25;;;;;;;4.25;1.42;;;;;;;;;;5015582;28;20037;-24
2024/01/18 10:27:52;;;;;;;4.53;2.57;;;;;;;;;;5014845;28;20037;-25
2024/01/18 10:30:18;;;;;;;1.48;1.02;;;;;;;;;;5014872;28;20257;-26
2024/01/18 10:32:45;;;;;;;1.70;1.13;;;;;;;;;;5014819;28;20026;-26
2024/01/18 10:35:25;;;;;;;3.85;1.38;;;;;;;;;;5015095;28;20034;-24
2024/01/18 10:38:05;;;;;;;2.03;1.17;;;;;;;;;;5014985;28;20105;-25
2024/01/18 10:40:33;;;;;;;5.47;1.30;;;;;;;;;;5014747;28;20049;-26
2024/01/18 10:43:00;;;;;;;2.47;1.23;;;;;;;;;;5014613;28;20022;-23
2024/01/18 10:45:30;;;;;;;3.25;1.50;;;;;;;;;;5013679;28;20026;-25
2024/01/18 10:47:56;;;;;;;5.15;1.67;;;;;;;;;;5014578;28;20103;-26
2024/01/18 10:50:23;;;;;;;5.93;1.48;;;;;;;;;;5014912;28;20030;-23
2024/01/18 10:52:49;;;;;;;3.13;1.20;;;;;;;;;;5014883;28;20022;-24
2024/01/18 10:55:15;;;;;;;11.95;1.48;;;;;;;;;;5014653;28;20026;-24
2024/01/18 10:57:42;;;;;;;3.45;1.02;;;;;;;;;;5014880;28;20038;-25
2024/01/18 11:00:08;;;;;;;5.60;1.63;;;;;;;;;;5016146;28;20026;-24
2024/01/18 11:02:42;;;;;;;1.58;1.13;;;;;;;;;;5018541;28;20046;-23
2024/01/18 11:05:17;;;;;;;4.10;1.55;;;;;;;;;;5018984;28;20038;-25
2024/01/18 11:07:43;;;;;;;4.68;1.67;;;;;;;;;;5018868;28;20034;-24
2024/01/18 11:10:13;;;;;;;5.97;1.33;;;;;;;;;;5018622;28;20026;-24
2024/01/18 11:12:45;;;;;;;8.27;1.63;;;;;;;;;;5018428;28;20030;-24
2024/01/18 11:15:13;;;;;;;5.97;1.10;;;;;;;;;;5018636;28;20379;-24
2024/01/18 11:17:50;;;;;;;12.68;2.80;;;;;;;;;;5018415;28;20465;-24
2024/01/18 11:20:17;;;;;;;8.80;1.73;;;;;;;;;;5018353;28;20475;-24
2024/01/18 11:22:43;;;;;;;7.43;1.85;;;;;;;;;;5018204;28;20026;-23
2024/01/18 11:25:10;;;;;;;5.28;1.50;;;;;;;;;;5018797;28;20037;-24
2024/01/18 11:27:38;;;;;;;9.30;1.58;;;;;;;;;;5018082;28;20022;-24
2024/01/18 11:30:09;;;;;;;4.43;1.70;;;;;;;;;;5018397;28;20014;-23
2024/01/18 11:32:35;;;;;;;4.30;1.42;;;;;;;;;;5018000;28;20175;-25
2024/01/18 11:35:09;;;;;;;6.65;2.58;;;;;;;;;;5018405;28;20041;-24
2024/01/18 11:37:35;;;;;;;8.80;1.33;;;;;;;;;;5018243;28;20088;-23
2024/01/18 11:40:01;;;;;;;6.68;1.83;;;;;;;;;;5017937;28;20087;-24
2024/01/18 11:42:30;;;;;;;2.72;1.20;;;;;;;;;;5018198;28;20401;-23
2024/01/18 11:45:00;;;;;;;4.05;1.40;;;;;;;;;;5018083;28;20026;-24
2024/01/18 11:47:30;;;;;;;4.03;1.10;;;;;;;;;;5017612;28;20152;-24
2024/01/18 11:49:57;;;;;;;3.70;1.23;;;;;;;;;;5017812;28;20029;-26
2024/01/18 11:52:23;;;;;;;8.00;1.10;;;;;;;;;;5017915;28;20095;-27
2024/01/18 11:54:55;;;;;;;4.40;1.52;;;;;;;;;;5017690;28;20033;-24
2024/01/18 11:57:23;;;;;;;3.53;1.40;;;;;;;;;;5017641;28;20022;-26
2024/01/18 11:59:49;;;;;;;7.18;2.42;;;;;;;;;;5017566;28;20029;-27
2024/01/18 12:02:16;;;;;;;2.70;1.20;;;;;;;;;;5017171;28;20034;-26
2024/01/18 12:04:42;;;;;;;2.63;1.10;;;;;;;;;;5017728;28;20017;-26
2024/01/18 12:07:10;;;;;;;6.95;1.73;;;;;;;;;;5017426;28;20022;-26
2024/01/18 12:09:36;;;;;;;1.63;1.20;;;;;;;;;;5017323;28;20133;-25
2024/01/18 12:12:03;;;;;;;7.22;1.50;;;;;;;;;;5017133;28;20105;-25
2024/01/18 12:14:29;;;;;;;1.88;1.33;;;;;;;;;;5017550;28;20327;-24
2024/01/18 12:16:56;;;;;;;7.43;1.10;;;;;;;;;;5017246;28;20338;-26
2024/01/18 12:19:40;;;;;;;2.50;0.90;;;;;;;;;;5017186;28;20049;-24
2024/01/18 12:22:10;;;;;;;5.53;1.27;;;;;;;;;;5016988;28;20026;-28
2024/01/18 12:24:36;;;;;;;6.60;1.30;;;;;;;;;;5018018;28;20026;-25
2024/01/18 12:27:04;;;;;;;2.10;1.27;;;;;;;;;;5017357;28;20041;-27
2024/01/18 12:29:31;;;;;;;7.97;1.42;;;;;;;;;;5016820;28;20026;-26
2024/01/18 12:31:58;;;;;;;4.93;1.90;;;;;;;;;;5017211;28;20361;-26
2024/01/18 12:34:25;;;;;;;3.20;1.60;;;;;;;;;;5017267;28;20117;-25
2024/01/18 12:36:51;;;;;;;12.20;1.40;;;;;;;;;;5017344;28;20025;-25
2024/01/18 12:39:18;;;;;;;9.20;2.20;;;;;;;;;;5017102;28;20141;-24
2024/01/18 12:41:45;;;;;;;17.73;2.03;;;;;;;;;;5017451;28;20034;-26
2024/01/18 12:44:12;;;;;;;6.40;1.48;;;;;;;;;;5016627;28;20030;-24
2024/01/18 12:46:39;;;;;;;9.27;1.40;;;;;;;;;;5016824;28;20334;-26
2024/01/18 12:49:06;;;;;;;12.10;1.85;;;;;;;;;;5016535;28;20030;-25
2024/01/18 12:51:33;;;;;;;7.85;1.33;;;;;;;;;;5016926;28;20030;-25
2024/01/18 12:54:00;;;;;;;12.00;1.73;;;;;;;;;;5017042;28;20088;-23
2024/01/18 12:56:26;;;;;;;18.20;1.50;;;;;;;;;;5016536;28;20102;-24
2024/01/18 12:58:52;;;;;;;5.40;1.30;;;;;;;;;;5016695;28;20424;-24
2024/01/18 13:01:27;;;;;;;5.05;1.73;;;;;;;;;;5016383;28;20437;-25
2024/01/18 13:03:53;;;;;;;5.65;1.20;;;;;;;;;;5016044;28;20050;-24
2024/01/18 13:06:19;;;;;;;10.30;1.88;;;;;;;;;;5016494;28;20408;-24
2024/01/18 13:08:45;;;;;;;7.95;1.48;;;;;;;;;;5016479;28;20053;-24
2024/01/18 13:11:11;;;;;;;9.43;1.38;;;;;;;;;;5016478;28;20061;-26
2024/01/18 13:13:37;;;;;;;4.60;1.42;;;;;;;;;;5016204;28;20088;-26
2024/01/18 13:16:03;;;;;;;9.18;1.70;;;;;;;;;;5016650;28;20018;-27
2024/01/18 13:18:30;;;;;;;8.43;2.20;;;;;;;;;;5016313;28;20026;-23
2024/01/18 13:20:56;;;;;;;5.38;1.25;;;;;;;;;;5016066;28;20041;-25
2024/01/18 13:23:23;;;;;;;7.68;1.20;;;;;;;;;;5015272;28;20163;-24
2024/01/18 13:25:49;;;;;;;4.15;1.50;;;;;;;;;;5016001;28;20101;-23
2024/01/18 13:28:15;;;;;;;8.63;1.77;;;;;;;;;;5016108;28;20057;-23
2024/01/18 13:30:43;;;;;;;7.45;1.73;;;;;;;;;;5015996;28;20026;-24
2024/01/18 13:33:09;;;;;;;5.22;1.70;;;;;;;;;;5015835;28;20033;-23
2024/01/18 13:35:35;;;;;;;8.73;3.50;;;;;;;;;;5015832;28;20452;-23
2024/01/18 13:38:02;;;;;;;3.60;1.63;;;;;;;;;;5015936;28;20034;-25
2024/01/18 13:40:28;;;;;;;5.20;1.30;;;;;;;;;;5015729;28;20031;-24
2024/01/18 13:42:54;;;;;;;9.02;1.30;;;;;;;;;;5015525;28;20028;-28
2024/01/18 13:45:23;;;;;;;5.75;1.15;;;;;;;;;;5015783;28;20445;-25
2024/01/18 13:47:50;;;;;;;5.65;1.60;;;;;;;;;;5015436;28;20045;-24
2024/01/18 13:50:16;;;;;;;4.63;2.47;;;;;;;;;;5015457;28;20026;-24
2024/01/18 13:52:43;;;;;;;8.68;1.40;;;;;;;;;;5015576;28;20419;-25
2024/01/18 13:55:09;;;;;;;3.88;1.90;;;;;;;;;;5015481;28;20452;-24
2024/01/18 13:57:35;;;;;;;4.68;1.10;;;;;;;;;;5015805;28;20030;-24
2024/01/18 14:00:01;;;;;;;5.20;1.25;;;;;;;;;;5015764;28;20033;-27
2024/01/18 14:02:27;;;;;;;12.15;1.75;;;;;;;;;;5015254;28;20120;-23
2024/01/18 14:04:53;;;;;;;5.13;3.08;;;;;;;;;;5015819;28;20022;-27
2024/01/18 14:07:19;;;;;;;8.43;1.50;;;;;;;;;;5015409;28;20072;-25
2024/01/18 14:09:46;;;;;;;11.70;2.25;;;;;;;;;;5015551;28;20073;-23
2024/01/18 14:12:13;;;;;;;6.10;1.25;;;;;;;;;;5015473;28;20046;-24
2024/01/18 14:14:39;;;;;;;5.18;2.15;;;;;;;;;;5015273;28;20041;-24
2024/01/18 14:17:06;;;;;;;1.85;1.20;;;;;;;;;;5014139;28;20505;-25
2024/01/18 14:19:33;;;;;;;6.75;1.90;;;;;;;;;;5015214;28;20037;-24
2024/01/18 14:21:59;;;;;;;5.35;1.13;;;;;;;;;;5015130;28;20536;-23
2024/01/18 14:24:25;;;;;;;9.27;1.55;;;;;;;;;;5014880;28;20453;-24
2024/01/18 14:26:51;;;;;;;9.98;2.20;;;;;;;;;;5014755;28;20053;-25
2024/01/18 14:29:17;;;;;;;11.43;1.92;;;;;;;;;;5014741;28;20034;-26
2024/01/18 14:31:44;;;;;;;5.20;1.33;;;;;;;;;;5014766;28;20025;-27
2024/01/18 14:34:10;;;;;;;8.38;2.75;;;;;;;;;;5013744;28;20033;-25
2024/01/18 14:36:36;;;;;;;8.90;1.70;;;;;;;;;;5014937;28;20022;-23
2024/01/18 14:39:03;;;;;;;4.78;1.60;;;;;;;;;;5015305;28;20037;-24
2024/01/18 14:41:31;;;;;;;3.15;1.60;;;;;;;;;;5014605;28;20029;-24
2024/01/18 14:43:57;;;;;;;4.13;1.33;;;;;;;;;;5015011;28;20033;-24